createdAt,value
2018-06-13T00:00:16.707Z,97792.88
2018-06-13T00:02:45.676Z,97800.29
2018-06-13T00:05:14.765Z,97799.71
2018-06-13T00:07:43.822Z,97794.19
2018-06-13T00:10:12.785Z,97797.47
2018-06-13T00:12:41.836Z,97794.12
2018-06-13T00:15:10.885Z,97789.45
2018-06-13T00:17:39.875Z,97786.42
2018-06-13T00:20:08.843Z,97781.19
2018-06-13T00:22:37.840Z,97783.92
2018-06-13T00:25:08.095Z,97786.09
2018-06-13T00:27:37.120Z,97773.99
2018-06-13T00:30:06.152Z,97776.73
2018-06-13T00:32:35.136Z,97782.77
2018-06-13T00:35:04.244Z,97777.52
2018-06-13T00:37:34.099Z,97778.89
2018-06-13T00:40:03.029Z,97779.44
2018-06-13T00:42:32.084Z,97779.98
2018-06-13T00:45:01.856Z,97784.05
2018-06-13T00:47:32.216Z,97783.50
2018-06-13T00:50:01.806Z,97778.80
2018-06-13T00:52:31.334Z,97773.81
2018-06-13T00:55:00.380Z,97780.67
2018-06-13T00:57:29.325Z,97781.49
2018-06-13T00:59:58.263Z,97775.14
2018-06-13T01:02:27.342Z,97788.59
2018-06-13T01:04:57.254Z,97784.19
2018-06-13T01:07:26.324Z,97782.48
2018-06-13T01:09:55.321Z,97779.44
2018-06-13T01:12:24.267Z,97781.88
2018-06-13T01:14:53.171Z,97786.52
2018-06-13T01:17:23.214Z,97784.86
2018-06-13T01:19:52.871Z,97786.23
2018-06-13T01:22:22.546Z,97782.91
2018-06-13T01:24:51.502Z,97783.19
2018-06-13T01:27:20.486Z,97776.00
2018-06-13T01:29:49.464Z,97771.25
2018-06-13T01:32:18.462Z,97769.58
2018-06-13T01:34:47.451Z,97774.77
2018-06-13T01:37:16.408Z,97770.36
2018-06-13T01:39:45.493Z,97764.58
2018-06-13T01:42:14.404Z,97759.08
2018-06-13T01:44:43.396Z,97759.04
2018-06-13T01:47:12.314Z,97764.80
2018-06-13T01:49:42.319Z,97769.70
2018-06-13T01:52:11.449Z,97766.95
2018-06-13T01:54:40.880Z,97761.99
2018-06-13T01:57:09.895Z,97768.85
2018-06-13T01:59:38.967Z,97768.85
2018-06-13T02:02:08.229Z,97762.78
2018-06-13T02:04:37.891Z,97761.12
2018-06-13T02:07:06.924Z,97759.44
2018-06-13T02:09:35.896Z,97756.38
2018-06-13T02:12:05.515Z,97754.95
2018-06-13T02:14:34.522Z,97747.49
2018-06-13T02:17:03.548Z,97752.68
2018-06-13T02:19:32.514Z,97759.75
2018-06-13T02:22:01.537Z,97753.95
2018-06-13T02:24:31.248Z,97753.05
2018-06-13T02:27:00.169Z,97752.95
2018-06-13T02:29:30.511Z,97742.24
2018-06-13T02:31:59.418Z,97742.52
2018-06-13T02:34:28.527Z,97744.44
2018-06-13T02:36:57.492Z,97742.32
2018-06-13T02:39:27.148Z,97746.98
2018-06-13T02:41:56.143Z,97749.42
2018-06-13T02:44:25.152Z,97748.64
2018-06-13T02:46:54.088Z,97733.57
2018-06-13T02:49:23.070Z,97737.17
2018-06-13T02:51:52.039Z,97745.31
2018-06-13T02:54:20.958Z,97732.63
2018-06-13T02:56:50.696Z,97743.81
2018-06-13T02:59:19.629Z,97742.67
2018-06-13T03:01:48.536Z,97743.75
2018-06-13T03:04:17.597Z,97746.17
2018-06-13T03:06:46.507Z,97743.44
2018-06-13T03:09:16.856Z,97744.25
2018-06-13T03:11:45.803Z,97743.11
2018-06-13T03:14:14.802Z,97733.77
2018-06-13T03:16:44.120Z,97736.80
2018-06-13T03:19:13.748Z,97732.47
2018-06-13T03:21:42.651Z,97732.20
2018-06-13T03:24:12.141Z,97727.60
2018-06-13T03:26:41.168Z,97723.52
2018-06-13T03:29:10.081Z,97720.03
2018-06-13T03:31:39.777Z,97720.34
2018-06-13T03:34:08.741Z,97712.74
2018-06-13T03:36:37.737Z,97714.20
2018-06-13T03:39:09.022Z,97723.83
2018-06-13T03:41:37.943Z,97722.23
2018-06-13T03:44:06.883Z,97721.72
2018-06-13T03:46:35.908Z,97726.20
2018-06-13T03:49:04.851Z,97719.11
2018-06-13T03:51:33.858Z,97714.82
2018-06-13T03:54:02.785Z,97727.75
2018-06-13T03:56:32.644Z,97727.81
2018-06-13T03:59:01.541Z,97719.95
2018-06-13T04:01:31.064Z,97719.75
2018-06-13T04:03:59.983Z,97716.02
2018-06-13T04:06:28.992Z,97716.91
2018-06-13T04:08:58.178Z,97725.22
2018-06-13T04:11:27.132Z,97723.66
2018-06-13T04:13:56.119Z,97719.58
2018-06-13T04:16:25.290Z,97718.28
2018-06-13T04:18:55.260Z,97724.06
2018-06-13T04:21:24.236Z,97714.20
2018-06-13T04:23:53.248Z,97709.03
2018-06-13T04:26:23.012Z,97711.80
2018-06-13T04:28:52.521Z,97709.38
2018-06-13T04:31:21.516Z,97706.11
2018-06-13T04:33:50.442Z,97703.41
2018-06-13T04:36:19.566Z,97709.48
2018-06-13T04:38:49.065Z,97715.03
2018-06-13T04:41:18.653Z,97715.60
2018-06-13T04:43:47.785Z,97713.74
2018-06-13T04:46:16.751Z,97712.63
2018-06-13T04:48:46.332Z,97716.47
2018-06-13T04:51:15.492Z,97715.08
2018-06-13T04:53:44.488Z,97714.55
2018-06-13T04:56:14.813Z,97719.45
2018-06-13T04:58:43.791Z,97716.11
2018-06-13T05:01:12.683Z,97714.12
2018-06-13T05:03:41.689Z,97717.61
2018-06-13T05:06:10.725Z,97716.66
2018-06-13T05:08:40.300Z,97711.78
2018-06-13T05:11:09.286Z,97709.97
2018-06-13T05:13:38.995Z,97717.73
2018-06-13T05:16:07.947Z,97719.19
2018-06-13T05:18:39.043Z,97717.98
2018-06-13T05:21:08.660Z,97716.39
2018-06-13T05:23:37.583Z,97720.20
2018-06-13T05:26:07.004Z,97714.21
2018-06-13T05:28:36.042Z,97726.38
2018-06-13T05:31:04.996Z,97728.09
2018-06-13T05:33:34.045Z,97726.22
2018-06-13T05:36:03.034Z,97714.77
2018-06-13T05:38:32.847Z,97719.27
2018-06-13T05:41:02.717Z,97711.06
2018-06-13T05:43:31.658Z,97713.15
2018-06-13T05:46:00.551Z,97712.72
2018-06-13T05:48:29.514Z,97715.91
2018-06-13T05:50:58.529Z,97710.17
2018-06-13T05:53:27.420Z,97713.05
2018-06-13T05:55:56.539Z,97712.30
2018-06-13T05:58:25.508Z,97707.59
2018-06-13T06:00:54.473Z,97700.87
2018-06-13T06:03:23.485Z,97693.03
2018-06-13T06:05:52.495Z,97693.13
2018-06-13T06:08:23.643Z,97693.42
2018-06-13T06:10:52.540Z,97695.41
2018-06-13T06:13:21.517Z,97692.26
2018-06-13T06:15:50.448Z,97692.31
2018-06-13T06:18:19.449Z,97688.16
2018-06-13T06:20:48.420Z,97678.52
2018-06-13T06:23:17.848Z,97673.78
2018-06-13T06:25:46.794Z,97673.59
2018-06-13T06:28:15.776Z,97673.03
2018-06-13T06:30:44.835Z,97670.11
2018-06-13T06:33:13.843Z,97672.42
2018-06-13T06:35:43.245Z,97674.34
2018-06-13T06:38:14.122Z,97673.81
2018-06-13T06:40:43.077Z,97673.53
2018-06-13T06:43:12.132Z,97665.46
2018-06-13T06:45:41.749Z,97671.08
2018-06-13T06:48:11.441Z,97675.72
2018-06-13T06:50:40.455Z,97672.73
2018-06-13T06:53:09.477Z,97672.52
2018-06-13T06:55:38.509Z,97673.03
2018-06-13T06:58:07.421Z,97669.81
2018-06-13T07:00:36.351Z,97669.55
2018-06-13T07:03:05.285Z,97676.11
2018-06-13T07:05:34.762Z,97678.68
2018-06-13T07:08:03.863Z,97673.05
2018-06-13T07:10:32.891Z,97666.08
2018-06-13T07:13:01.819Z,97665.02
2018-06-13T07:15:30.905Z,97659.77
2018-06-13T07:17:59.937Z,97663.33
2018-06-13T07:20:29.566Z,97654.91
2018-06-13T07:22:58.633Z,97657.63
2018-06-13T07:25:27.717Z,97650.05
2018-06-13T07:27:56.615Z,97646.41
2018-06-13T07:30:25.647Z,97645.10
2018-06-13T07:32:54.578Z,97661.56
2018-06-13T07:35:23.530Z,97659.65
2018-06-13T07:37:52.512Z,97658.12
2018-06-13T07:40:21.458Z,97655.17
2018-06-13T07:42:50.437Z,97647.32
2018-06-13T07:45:19.612Z,97650.25
2018-06-13T07:47:48.638Z,97654.18
2018-06-13T07:50:18.320Z,97653.05
2018-06-13T07:52:47.379Z,97648.23
2018-06-13T07:55:16.391Z,97648.60
2018-06-13T07:57:45.388Z,97648.92
2018-06-13T08:00:15.214Z,97639.97
2018-06-13T08:02:44.131Z,97641.27
2018-06-13T08:05:13.156Z,97644.77
2018-06-13T08:07:42.147Z,97645.53
2018-06-13T08:10:12.065Z,97641.70
2018-06-13T08:12:41.006Z,97641.82
2018-06-13T08:15:10.469Z,97642.81
2018-06-13T08:17:39.413Z,97642.15
2018-06-13T08:20:08.443Z,97638.54
2018-06-13T08:22:37.563Z,97639.55
2018-06-13T08:25:07.484Z,97634.23
2018-06-13T08:27:42.728Z,97632.31
2018-06-13T08:30:11.664Z,97630.63
2018-06-13T08:32:40.664Z,97629.00
2018-06-13T08:35:10.187Z,97632.47
2018-06-13T08:37:39.285Z,97629.48
2018-06-13T08:40:08.467Z,97630.55
2018-06-13T08:42:37.597Z,97630.68
2018-06-13T08:45:07.532Z,97632.98
2018-06-13T08:47:36.785Z,97622.87
2018-06-13T08:50:06.736Z,97624.02
2018-06-13T08:52:35.644Z,97626.33
2018-06-13T08:55:04.608Z,97624.18
2018-06-13T08:57:33.698Z,97618.41
2018-06-13T09:00:03.371Z,97614.55
2018-06-13T09:02:32.373Z,97615.64
2018-06-13T09:05:01.372Z,97612.69
2018-06-13T09:07:31.094Z,97612.19
2018-06-13T09:10:00.108Z,97611.72
2018-06-13T09:12:29.119Z,97617.20
2018-06-13T09:14:58.094Z,97608.70
2018-06-13T09:17:27.812Z,97605.69
2018-06-13T09:19:56.788Z,97606.66
2018-06-13T09:22:26.385Z,97588.33
2018-06-13T09:24:55.316Z,97590.36
2018-06-13T09:27:24.384Z,97597.83
2018-06-13T09:29:53.325Z,97587.78
2018-06-13T09:32:22.234Z,97591.44
2018-06-13T09:34:51.848Z,97585.79
2018-06-13T09:37:20.920Z,97586.77
2018-06-13T09:39:49.892Z,97584.64
2018-06-13T09:42:19.637Z,97582.59
2018-06-13T09:44:48.636Z,97591.37
2018-06-13T09:47:23.453Z,97587.36
2018-06-13T09:49:46.674Z,97585.48
2018-06-13T09:52:15.773Z,97576.66
2018-06-13T09:54:44.717Z,97581.47
2018-06-13T09:57:14.328Z,97575.30
2018-06-13T09:59:48.280Z,97571.69
2018-06-13T10:02:19.072Z,97567.27
2018-06-13T10:04:49.232Z,97569.81
2018-06-13T10:07:18.797Z,97568.04
2018-06-13T10:09:47.860Z,97560.57
2018-06-13T10:12:17.260Z,97554.98
2018-06-13T10:14:46.271Z,97546.03
2018-06-13T10:17:15.440Z,97543.50
2018-06-13T10:19:44.346Z,97537.77
2018-06-13T10:22:13.457Z,97539.97
2018-06-13T10:24:42.707Z,97529.34
2018-06-13T10:27:17.455Z,97524.94
2018-06-13T10:29:46.445Z,97520.99
2018-06-13T10:32:15.448Z,97515.14
2018-06-13T10:34:44.410Z,97522.59
2018-06-13T10:37:14.403Z,97525.39
2018-06-13T10:39:43.370Z,97524.64
2018-06-13T10:42:12.919Z,97522.71
2018-06-13T10:44:42.012Z,97515.62
2018-06-13T10:47:10.949Z,97507.73
2018-06-13T10:49:42.256Z,97507.22
2018-06-13T10:52:12.514Z,97499.83
2018-06-13T10:54:41.541Z,97491.39
2018-06-13T10:57:10.556Z,97482.08
2018-06-13T10:59:39.468Z,97483.88
2018-06-13T11:02:08.465Z,97470.83
2018-06-13T11:04:38.313Z,97478.83
2018-06-13T11:07:07.294Z,97478.80
2018-06-13T11:09:36.288Z,97465.08
2018-06-13T11:12:05.239Z,97461.07
2018-06-13T11:14:34.232Z,97457.58
2018-06-13T11:17:03.217Z,97460.33
2018-06-13T11:19:32.274Z,97455.57
2018-06-13T11:22:01.330Z,97459.95
2018-06-13T11:24:30.811Z,97453.69
2018-06-13T11:26:59.803Z,97449.77
2018-06-13T11:29:29.205Z,97445.52
2018-06-13T11:31:58.224Z,97443.69
2018-06-13T11:34:27.180Z,97443.97
2018-06-13T11:36:56.896Z,97438.98
2018-06-13T11:39:25.849Z,97438.95
2018-06-13T11:41:54.941Z,97441.84
2018-06-13T11:44:27.364Z,97442.13
2018-06-13T11:46:56.621Z,97444.78
2018-06-13T11:49:25.531Z,97439.50
2018-06-13T11:51:54.475Z,97440.17
2018-06-13T11:54:24.174Z,97428.78
2018-06-13T11:56:53.193Z,97436.17
2018-06-13T11:59:22.118Z,97428.80
2018-06-13T12:01:51.838Z,97427.53
2018-06-13T12:04:20.888Z,97423.44
2018-06-13T12:06:50.708Z,97426.18
2018-06-13T12:09:19.675Z,97424.25
2018-06-13T12:11:48.617Z,97422.11
2018-06-13T12:14:17.535Z,97416.96
2018-06-13T12:16:46.593Z,97413.03
2018-06-13T12:19:17.696Z,97404.45
2018-06-13T12:21:46.777Z,97408.38
2018-06-13T12:24:15.783Z,97394.41
2018-06-13T12:26:44.787Z,97393.55
2018-06-13T12:29:13.765Z,97396.42
2018-06-13T12:31:42.742Z,97388.23
2018-06-13T12:34:11.719Z,97394.95
2018-06-13T12:36:40.766Z,97388.05
2018-06-13T12:39:11.551Z,97381.53
2018-06-13T12:41:40.534Z,97377.40
2018-06-13T12:44:10.378Z,97367.76
2018-06-13T12:46:39.318Z,97370.42
2018-06-13T12:49:08.381Z,97353.09
2018-06-13T12:51:37.459Z,97342.38
2018-06-13T12:54:06.446Z,97355.20
2018-06-13T12:56:35.531Z,97354.66
2018-06-13T12:59:05.530Z,97346.67
2018-06-13T13:01:34.521Z,97335.69
2018-06-13T13:04:03.447Z,97332.98
2018-06-13T13:06:33.189Z,97330.77
2018-06-13T13:09:02.093Z,97324.13
2018-06-13T13:11:31.957Z,97319.52
2018-06-13T13:14:01.158Z,97320.91
2018-06-13T13:16:30.124Z,97328.17
2018-06-13T13:18:59.041Z,97327.45
2018-06-13T13:21:28.888Z,97335.91
2018-06-13T13:23:58.103Z,97324.75
2018-06-13T13:26:27.047Z,97337.86
2018-06-13T13:28:56.075Z,97332.27
2018-06-13T13:31:24.961Z,97343.22
2018-06-13T13:33:53.879Z,97342.77
2018-06-13T13:36:22.989Z,97338.89
2018-06-13T13:38:51.985Z,97337.48
2018-06-13T13:41:20.956Z,97335.27
2018-06-13T13:43:49.953Z,97331.89
2018-06-13T13:46:18.977Z,97331.30
2018-06-13T13:48:47.906Z,97335.13
2018-06-13T13:51:17.495Z,97330.55
2018-06-13T13:53:46.394Z,97331.80
2018-06-13T13:56:15.331Z,97330.28
2018-06-13T13:58:44.516Z,97333.08
2018-06-13T14:01:14.368Z,97327.48
2018-06-13T14:03:43.263Z,97320.49
2018-06-13T14:06:12.297Z,97310.66
2018-06-13T14:08:41.254Z,97315.38
2018-06-13T14:11:10.388Z,97310.95
2018-06-13T14:13:39.794Z,97310.77
2018-06-13T14:16:09.392Z,97308.80
2018-06-13T14:18:38.420Z,97298.91
2018-06-13T14:21:07.447Z,97300.55
2018-06-13T14:23:36.359Z,97299.88
2018-06-13T14:26:05.421Z,97297.97
2018-06-13T14:28:34.496Z,97298.45
2018-06-13T14:31:03.493Z,97307.55
2018-06-13T14:33:32.562Z,97313.66
2018-06-13T14:36:01.554Z,97314.03
2018-06-13T14:38:30.544Z,97308.58
2018-06-13T14:40:59.521Z,97309.73
2018-06-13T14:43:29.069Z,97308.81
2018-06-13T14:45:58.040Z,97308.50
2018-06-13T14:48:27.062Z,97306.38
2018-06-13T14:50:56.146Z,97305.08
2018-06-13T14:53:25.675Z,97298.23
2018-06-13T14:55:59.740Z,97303.82
2018-06-13T14:58:29.697Z,97302.78
2018-06-13T15:00:58.793Z,97303.84
2018-06-13T15:03:27.900Z,97303.14
2018-06-13T15:05:57.456Z,97304.77
2018-06-13T15:08:26.453Z,97300.23
2018-06-13T15:10:55.528Z,97293.35
2018-06-13T15:13:25.131Z,97296.73
2018-06-13T15:15:54.335Z,97297.22
2018-06-13T15:18:23.323Z,97295.31
2018-06-13T15:20:52.886Z,97291.60
2018-06-13T15:23:21.867Z,97299.26
2018-06-13T15:25:50.974Z,97292.96
2018-06-13T15:28:19.968Z,97292.84
2018-06-13T15:30:48.981Z,97286.88
2018-06-13T15:33:18.095Z,97284.73
2018-06-13T15:35:47.950Z,97284.73
2018-06-13T15:38:16.957Z,97278.66
2018-06-13T15:40:46.451Z,97263.57
2018-06-13T15:43:15.439Z,97264.69
2018-06-13T15:45:44.372Z,97250.99
2018-06-13T15:48:13.633Z,97252.34
2018-06-13T15:50:42.655Z,97245.38
2018-06-13T15:53:11.616Z,97242.67
2018-06-13T15:55:40.638Z,97233.08
2018-06-13T15:58:09.656Z,97227.83
2018-06-13T16:00:38.677Z,97232.67
2018-06-13T16:03:09.432Z,97229.38
2018-06-13T16:05:38.527Z,97227.84
2018-06-13T16:08:08.239Z,97220.06
2018-06-13T16:10:37.987Z,97220.16
2018-06-13T16:13:07.010Z,97214.50
2018-06-13T16:15:36.064Z,97215.89
2018-06-13T16:18:06.056Z,97221.91
2018-06-13T16:20:35.919Z,97224.89
2018-06-13T16:23:04.889Z,97223.03
2018-06-13T16:25:33.831Z,97219.19
2018-06-13T16:28:02.956Z,97222.30
2018-06-13T16:30:31.952Z,97230.11
2018-06-13T16:33:01.674Z,97228.38
2018-06-13T16:35:30.754Z,97240.41
2018-06-13T16:37:59.633Z,97238.06
2018-06-13T16:40:28.589Z,97240.71
2018-06-13T16:42:57.588Z,97248.43
2018-06-13T16:45:26.821Z,97257.89
2018-06-13T16:47:55.924Z,97275.00
2018-06-13T16:50:35.704Z,97276.70
2018-06-13T16:53:24.430Z,97284.98
2018-06-13T16:55:55.353Z,97287.87
2018-06-13T16:58:24.334Z,97289.05
2018-06-13T17:00:53.685Z,97297.58
2018-06-13T17:03:22.789Z,97309.84
2018-06-13T17:05:51.674Z,97311.56
2018-06-13T17:08:20.957Z,97311.91
2018-06-13T17:10:50.756Z,97311.02
2018-06-13T17:13:19.616Z,97312.92
2018-06-13T17:15:48.537Z,97318.59
2018-06-13T17:18:17.459Z,97325.56
2018-06-13T17:20:46.420Z,97334.22
2018-06-13T17:23:15.411Z,97332.93
2018-06-13T17:25:44.342Z,97343.80
2018-06-13T17:28:13.328Z,97336.44
2018-06-13T17:30:42.339Z,97334.43
2018-06-13T17:33:11.368Z,97329.16
2018-06-13T17:35:40.313Z,97336.27
2018-06-13T17:38:09.177Z,97344.23
2018-06-13T17:40:38.383Z,97350.02
2018-06-13T17:43:07.339Z,97356.64
2018-06-13T17:45:36.336Z,97355.08
2018-06-13T17:48:05.420Z,97354.76
2018-06-13T17:50:35.089Z,97360.36
2018-06-13T17:53:04.002Z,97366.95
2018-06-13T17:55:33.150Z,97379.19
2018-06-13T17:58:02.545Z,97378.28
2018-06-13T18:00:31.622Z,97378.87
2018-06-13T18:03:01.149Z,97374.98
2018-06-13T18:05:30.247Z,97372.62
2018-06-13T18:07:59.269Z,97371.27
2018-06-13T18:10:28.463Z,97365.68
2018-06-13T18:12:57.474Z,97370.14
2018-06-13T18:15:26.474Z,97376.33
2018-06-13T18:17:55.553Z,97383.91
2018-06-13T18:20:24.437Z,97391.14
2018-06-13T18:22:54.155Z,97397.13
2018-06-13T18:25:23.213Z,97407.02
2018-06-13T18:27:52.220Z,97405.32
2018-06-13T18:30:21.153Z,97413.30
2018-06-13T18:32:50.152Z,97417.16
2018-06-13T18:35:19.171Z,97426.04
2018-06-13T18:37:48.111Z,97428.55
2018-06-13T18:40:17.184Z,97433.49
2018-06-13T18:42:46.188Z,97436.57
2018-06-13T18:45:15.169Z,97436.49
2018-06-13T18:47:44.756Z,97446.08
2018-06-13T18:50:13.710Z,97446.52
2018-06-13T18:52:42.652Z,97441.70
2018-06-13T18:55:11.835Z,97442.84
2018-06-13T18:57:40.882Z,97436.47
2018-06-13T19:00:09.920Z,97440.06
2018-06-13T19:02:39.145Z,97438.45
2018-06-13T19:05:08.090Z,97433.41
2018-06-13T19:07:37.132Z,97446.53
2018-06-13T19:10:06.112Z,97450.52
2018-06-13T19:12:35.121Z,97457.19
2018-06-13T19:15:04.278Z,97470.09
2018-06-13T19:17:33.375Z,97467.91
2018-06-13T19:20:02.335Z,97472.94
2018-06-13T19:22:31.640Z,97472.50
2018-06-13T19:25:00.600Z,97471.56
2018-06-13T19:27:35.920Z,97476.48
2018-06-13T19:30:05.198Z,97480.27
2018-06-13T19:32:34.139Z,97480.19
2018-06-13T19:35:03.091Z,97479.50
2018-06-13T19:37:34.969Z,97489.83
2018-06-13T19:40:04.098Z,97492.71
2018-06-13T19:42:33.154Z,97504.27
2018-06-13T19:45:02.152Z,97505.39
2018-06-13T19:47:36.230Z,97503.70
2018-06-13T19:50:05.297Z,97503.44
2018-06-13T19:52:39.272Z,97506.22
2018-06-13T19:55:13.423Z,97494.08
2018-06-13T19:57:42.524Z,97497.14
2018-06-13T20:00:11.554Z,97502.75
2018-06-13T20:02:45.658Z,97502.59
2018-06-13T20:05:19.788Z,97499.56
2018-06-13T20:07:49.251Z,97490.56
2018-06-13T20:10:18.181Z,97496.47
2018-06-13T20:12:52.201Z,97490.23
2018-06-13T20:15:26.265Z,97500.02
2018-06-13T20:18:00.449Z,97493.53
2018-06-13T20:20:29.475Z,97487.77
2018-06-13T20:22:58.412Z,97483.77
2018-06-13T20:25:32.709Z,97487.78
2018-06-13T20:28:06.739Z,97491.20
2018-06-13T20:30:40.656Z,97499.56
2018-06-13T20:33:09.676Z,97504.22
2018-06-13T20:35:38.725Z,97507.57
2018-06-13T20:38:07.856Z,97502.13
2018-06-13T20:40:36.867Z,97505.19
2018-06-13T20:43:05.888Z,97510.81
2018-06-13T20:45:34.915Z,97514.46
2018-06-13T20:48:03.848Z,97515.05
2018-06-13T20:50:33.460Z,97514.02
2018-06-13T20:53:03.323Z,97513.45
2018-06-13T20:55:32.436Z,97515.98
2018-06-13T20:58:01.363Z,97516.87
2018-06-13T21:00:30.352Z,97510.02
2018-06-13T21:02:59.258Z,97505.95
2018-06-13T21:05:28.189Z,97506.23
2018-06-13T21:07:57.877Z,97508.50
2018-06-13T21:10:26.926Z,97519.30
2018-06-13T21:12:56.765Z,97532.36
2018-06-13T21:15:25.996Z,97528.77
2018-06-13T21:17:55.016Z,97536.45
2018-06-13T21:20:24.091Z,97530.15
2018-06-13T21:22:53.555Z,97530.17
2018-06-13T21:25:23.105Z,97534.38
2018-06-13T21:27:52.034Z,97528.63
2018-06-13T21:30:21.149Z,97526.48
2018-06-13T21:32:50.036Z,97520.53
2018-06-13T21:35:18.963Z,97515.91
2018-06-13T21:37:48.193Z,97515.98
2018-06-13T21:40:17.261Z,97509.75
2018-06-13T21:42:46.269Z,97506.47
2018-06-13T21:45:15.328Z,97492.78
2018-06-13T21:47:44.287Z,97492.03
2018-06-13T21:50:13.275Z,97491.59
2018-06-13T21:52:42.892Z,97495.73
2018-06-13T21:55:11.952Z,97490.00
2018-06-13T21:57:41.551Z,97482.92
2018-06-13T22:00:12.041Z,97483.21
2018-06-13T22:02:41.160Z,97486.05
2018-06-13T22:05:10.131Z,97493.50
2018-06-13T22:07:39.164Z,97490.80
2018-06-13T22:10:08.219Z,97493.02
2018-06-13T22:12:37.198Z,97494.16
2018-06-13T22:15:10.392Z,97499.69
2018-06-13T22:17:39.371Z,97507.98
2018-06-13T22:20:09.086Z,97502.78
2018-06-13T22:22:38.835Z,97499.25
2018-06-13T22:25:07.798Z,97503.44
2018-06-13T22:27:37.332Z,97502.34
2018-06-13T22:30:06.453Z,97509.80
2018-06-13T22:32:36.321Z,97509.63
2018-06-13T22:35:05.760Z,97510.47
2018-06-13T22:37:35.003Z,97505.25
2018-06-13T22:40:04.103Z,97502.48
2018-06-13T22:42:33.348Z,97500.27
2018-06-13T22:45:02.386Z,97497.50
2018-06-13T22:47:31.324Z,97496.36
2018-06-13T22:50:00.273Z,97499.71
2018-06-13T22:52:29.827Z,97501.64
2018-06-13T22:54:59.705Z,97496.95
2018-06-13T22:57:28.627Z,97498.61
2018-06-13T22:59:57.661Z,97499.45
2018-06-13T23:02:26.551Z,97493.70
2018-06-13T23:04:55.507Z,97489.08
2018-06-13T23:07:24.553Z,97493.59
2018-06-13T23:09:53.534Z,97487.89
2018-06-13T23:12:23.408Z,97484.09
2018-06-13T23:14:52.578Z,97483.03
2018-06-13T23:17:21.558Z,97478.94
2018-06-13T23:19:50.580Z,97479.77
2018-06-13T23:22:19.561Z,97477.55
2018-06-13T23:24:48.527Z,97475.95
2018-06-13T23:27:17.634Z,97473.19
2018-06-13T23:29:46.752Z,97476.27
2018-06-13T23:32:15.728Z,97475.43
2018-06-13T23:34:44.663Z,97481.66
2018-06-13T23:37:13.712Z,97496.62
2018-06-13T23:39:42.702Z,97493.64
2018-06-13T23:42:11.632Z,97492.58
2018-06-13T23:44:41.258Z,97493.16
2018-06-13T23:47:10.218Z,97484.14
2018-06-13T23:49:39.112Z,97491.03
2018-06-13T23:52:08.184Z,97491.86
2018-06-13T23:54:37.771Z,97494.89
2018-06-13T23:57:06.764Z,97498.51
2018-06-13T23:59:35.836Z,97497.72
